createdAt,value
2018-12-05T00:01:13.053Z,23.93
2018-12-05T00:03:47.941Z,20.80
2018-12-05T00:06:21.764Z,21.63
2018-12-05T00:08:56.638Z,20.27
2018-12-05T00:14:12.239Z,18.03
2018-12-05T00:16:46.176Z,21.57
2018-12-05T00:19:19.970Z,20.17
2018-12-05T00:21:53.781Z,22.70
2018-12-05T00:27:07.459Z,20.13
2018-12-05T00:29:41.313Z,18.97
2018-12-05T00:32:15.210Z,16.30
2018-12-05T00:37:31.187Z,16.43
2018-12-05T00:40:05.095Z,23.90
2018-12-05T00:42:38.978Z,17.13
2018-12-05T00:45:12.897Z,20.37
2018-12-05T00:47:47.474Z,16.13
2018-12-05T00:53:03.787Z,18.63
2018-12-05T00:55:38.378Z,14.93
2018-12-05T00:58:12.194Z,23.97
2018-12-05T01:00:45.987Z,14.83
2018-12-05T01:03:19.837Z,9.80
2018-12-05T01:05:54.343Z,11.07
2018-12-05T01:08:28.977Z,9.13
2018-12-05T01:13:49.550Z,11.90
2018-12-05T01:16:23.398Z,10.00
2018-12-05T01:18:58.823Z,9.90
2018-12-05T01:21:32.618Z,9.63
2018-12-05T01:24:06.517Z,7.00
2018-12-05T01:26:40.650Z,10.17
2018-12-05T01:29:14.698Z,6.37
2018-12-05T01:37:13.147Z,7.90
2018-12-05T01:39:47.014Z,9.67
2018-12-05T01:42:21.537Z,6.57
2018-12-05T01:47:39.820Z,6.83
2018-12-05T01:50:13.725Z,6.93
2018-12-05T01:55:28.947Z,5.37
2018-12-05T01:58:02.946Z,10.27
2018-12-05T02:00:36.698Z,6.53
2018-12-05T02:03:10.516Z,6.77
2018-12-05T02:05:45.057Z,8.77
2018-12-05T02:08:18.860Z,7.50
2018-12-05T02:10:52.625Z,6.00
2018-12-05T02:13:26.463Z,8.87
2018-12-05T02:16:00.967Z,8.43
2018-12-05T02:18:34.804Z,12.23
2018-12-05T02:21:08.587Z,23.07
2018-12-05T02:23:42.369Z,21.47
2018-12-05T02:26:16.185Z,22.57
2018-12-05T02:28:50.002Z,25.40
2018-12-05T02:31:23.990Z,18.83
2018-12-05T02:33:58.153Z,16.70
2018-12-05T02:36:32.644Z,13.30
2018-12-05T02:39:10.353Z,11.50
2018-12-05T02:41:44.906Z,13.93
2018-12-05T02:44:18.742Z,11.73
2018-12-05T02:46:52.523Z,10.50
2018-12-05T02:49:26.367Z,8.17
2018-12-05T02:52:00.195Z,9.13
2018-12-05T02:54:33.969Z,7.97
2018-12-05T02:57:07.748Z,9.10
2018-12-05T02:59:41.593Z,11.03
2018-12-05T03:02:15.411Z,10.43
2018-12-05T03:04:49.217Z,5.53
2018-12-05T03:07:23.038Z,8.30
2018-12-05T03:09:56.832Z,11.20
2018-12-05T03:12:30.649Z,14.50
2018-12-05T03:15:04.425Z,4.80
2018-12-05T03:17:38.251Z,6.70
2018-12-05T03:20:12.783Z,7.90
2018-12-05T03:22:46.569Z,7.70
2018-12-05T03:25:20.582Z,7.17
2018-12-05T03:27:54.357Z,4.77
2018-12-05T03:30:28.229Z,5.70
2018-12-05T03:33:03.068Z,6.30
2018-12-05T03:35:40.859Z,4.67
2018-12-05T03:38:15.369Z,7.07
2018-12-05T03:40:49.213Z,5.60
2018-12-05T03:43:23.094Z,2.87
2018-12-05T03:45:56.871Z,8.97
2018-12-05T03:48:33.126Z,4.70
2018-12-05T03:51:06.900Z,7.57
2018-12-05T03:53:40.716Z,7.33
2018-12-05T03:56:14.892Z,10.23
2018-12-05T03:58:49.590Z,4.90
2018-12-05T04:01:23.777Z,7.47
2018-12-05T04:03:57.534Z,8.40
2018-12-05T04:09:10.852Z,9.67
2018-12-05T04:11:44.891Z,7.67
2018-12-05T04:17:00.553Z,5.57
2018-12-05T04:19:34.223Z,10.03
2018-12-05T04:22:08.107Z,11.93
2018-12-05T04:24:41.964Z,9.20
2018-12-05T04:27:16.120Z,7.90
2018-12-05T04:29:50.593Z,6.47
2018-12-05T04:32:24.384Z,3.30
2018-12-05T04:34:58.166Z,6.13
2018-12-05T04:37:33.002Z,8.03
2018-12-05T04:40:07.632Z,4.60
2018-12-05T04:42:42.209Z,5.70
2018-12-05T04:45:16.035Z,6.33
2018-12-05T04:50:31.324Z,8.37
2018-12-05T04:53:05.773Z,6.87
2018-12-05T04:58:22.537Z,7.53
2018-12-05T05:00:56.310Z,6.00
2018-12-05T05:03:30.849Z,7.70
2018-12-05T05:06:04.729Z,9.53
2018-12-05T05:08:38.514Z,6.63
2018-12-05T05:11:12.292Z,5.67
2018-12-05T05:13:46.059Z,8.43
2018-12-05T05:16:20.607Z,7.37
2018-12-05T05:18:54.422Z,7.77
2018-12-05T05:21:28.273Z,6.90
2018-12-05T05:24:02.277Z,6.10
2018-12-05T05:26:36.704Z,8.23
2018-12-05T05:29:11.239Z,7.07
2018-12-05T05:31:48.639Z,6.47
2018-12-05T05:34:23.440Z,7.17
2018-12-05T05:36:57.279Z,6.53
2018-12-05T05:39:31.800Z,8.17
2018-12-05T05:42:06.323Z,8.03
2018-12-05T05:44:40.890Z,10.20
2018-12-05T05:47:14.679Z,8.27
2018-12-05T05:49:48.483Z,9.37
2018-12-05T05:52:22.317Z,8.40
2018-12-05T05:54:56.866Z,6.60
2018-12-05T05:57:30.631Z,9.23
2018-12-05T06:00:04.497Z,7.67
2018-12-05T06:02:39.341Z,6.47
2018-12-05T06:05:13.892Z,7.70
2018-12-05T06:07:48.025Z,8.97
2018-12-05T06:10:21.858Z,5.13
2018-12-05T06:12:55.669Z,8.57
2018-12-05T06:15:29.436Z,7.90
2018-12-05T06:18:03.225Z,7.13
2018-12-05T06:20:37.285Z,8.37
2018-12-05T06:23:11.058Z,7.40
2018-12-05T06:25:45.697Z,8.40
2018-12-05T06:28:19.488Z,8.07
2018-12-05T06:30:53.301Z,7.37
2018-12-05T06:33:27.200Z,10.53
2018-12-05T06:36:00.994Z,8.17
2018-12-05T06:38:35.009Z,7.47
2018-12-05T06:41:09.064Z,8.93
2018-12-05T06:43:42.852Z,7.53
2018-12-05T06:46:16.601Z,7.63
2018-12-05T06:48:51.261Z,8.60
2018-12-05T06:51:25.154Z,7.50
2018-12-05T06:53:59.000Z,5.63
2018-12-05T07:01:52.720Z,6.33
2018-12-05T07:07:06.317Z,7.57
2018-12-05T07:09:40.065Z,5.40
2018-12-05T07:12:13.894Z,6.83
2018-12-05T07:22:53.202Z,8.17
2018-12-05T07:25:27.713Z,9.30
2018-12-05T07:28:01.554Z,5.23
2018-12-05T07:30:35.413Z,6.47
2018-12-05T07:33:09.173Z,6.10
2018-12-05T07:35:42.997Z,6.60
2018-12-05T07:38:19.538Z,7.10
2018-12-05T07:40:51.597Z,10.07
2018-12-05T07:43:26.522Z,7.73
2018-12-05T07:46:01.129Z,8.30
2018-12-05T07:48:35.287Z,6.83
2018-12-05T07:53:48.666Z,5.27
2018-12-05T07:56:22.455Z,9.43
2018-12-05T07:58:56.266Z,5.50
2018-12-05T08:01:30.140Z,6.33
2018-12-05T08:04:04.239Z,7.93
2018-12-05T08:06:38.354Z,7.00
2018-12-05T08:09:12.923Z,7.10
2018-12-05T08:11:46.704Z,8.00
2018-12-05T08:14:20.797Z,7.00
2018-12-05T08:16:55.768Z,6.13
2018-12-05T08:19:29.560Z,5.00
2018-12-05T08:22:03.785Z,9.60
2018-12-05T08:24:37.924Z,6.30
2018-12-05T08:27:11.713Z,6.87
2018-12-05T08:29:45.882Z,8.73
2018-12-05T08:32:20.445Z,8.73
2018-12-05T08:34:54.232Z,6.20
2018-12-05T08:40:10.146Z,6.97
2018-12-05T08:42:43.922Z,6.33
2018-12-05T08:45:18.106Z,5.47
2018-12-05T08:50:34.778Z,7.17
2018-12-05T08:53:09.258Z,6.93
2018-12-05T08:55:43.087Z,10.60
2018-12-05T08:58:17.760Z,8.90
2018-12-05T09:00:51.574Z,7.30
2018-12-05T09:03:25.412Z,9.43
2018-12-05T09:05:59.194Z,9.53
2018-12-05T09:08:32.990Z,9.00
2018-12-05T09:11:06.797Z,6.33
2018-12-05T09:13:40.656Z,10.00
2018-12-05T09:16:14.493Z,9.70
2018-12-05T09:18:48.327Z,8.00
2018-12-05T09:21:22.169Z,6.53
2018-12-05T09:23:55.969Z,7.60
2018-12-05T09:26:29.830Z,8.03
2018-12-05T09:29:03.960Z,9.63
2018-12-05T09:31:37.783Z,10.40
2018-12-05T09:34:11.887Z,10.83
2018-12-05T09:36:45.697Z,8.33
2018-12-05T09:39:19.500Z,7.90
2018-12-05T09:41:53.304Z,9.83
2018-12-05T09:44:27.128Z,8.27
2018-12-05T09:47:00.918Z,10.00
2018-12-05T09:49:34.684Z,7.33
2018-12-05T09:52:08.484Z,8.40
2018-12-05T09:54:43.006Z,8.63
2018-12-05T09:57:17.525Z,8.47
2018-12-05T09:59:52.036Z,7.67
2018-12-05T10:02:26.154Z,7.43
2018-12-05T10:05:00.743Z,10.73
2018-12-05T10:07:34.809Z,7.47
2018-12-05T10:15:28.556Z,8.37
2018-12-05T10:18:02.296Z,6.57
2018-12-05T10:20:37.206Z,7.37
2018-12-05T10:23:11.117Z,9.07
2018-12-05T10:25:44.882Z,6.70
2018-12-05T10:28:18.698Z,8.53
2018-12-05T10:30:52.469Z,11.17
2018-12-05T10:36:03.542Z,9.67
2018-12-05T10:38:37.282Z,8.17
2018-12-05T10:41:11.443Z,7.87
2018-12-05T10:43:45.285Z,7.53
2018-12-05T10:46:19.806Z,9.37
2018-12-05T10:48:53.987Z,8.03
2018-12-05T10:51:27.794Z,11.30
2018-12-05T10:54:01.850Z,8.78
2018-12-05T10:56:36.878Z,8.68
2018-12-05T10:59:11.435Z,8.40
2018-12-05T11:02:03.967Z,8.60
2018-12-05T11:07:58.837Z,9.20
2018-12-05T11:10:51.154Z,9.57
2018-12-05T11:16:43.319Z,9.03
2018-12-05T11:19:35.730Z,7.97
2018-12-05T11:25:14.704Z,9.77
2018-12-05T11:27:48.718Z,12.25
2018-12-05T11:30:22.550Z,14.43
2018-12-05T11:32:56.378Z,9.33
2018-12-05T11:35:30.550Z,12.70
2018-12-05T11:40:44.231Z,8.77
2018-12-05T11:43:18.015Z,9.50
2018-12-05T11:51:11.226Z,11.07
2018-12-05T11:56:26.710Z,11.63
2018-12-05T11:59:00.453Z,10.60
2018-12-05T12:01:34.297Z,12.80
2018-12-05T12:06:47.715Z,11.33
2018-12-05T12:09:21.551Z,9.68
2018-12-05T12:11:55.408Z,11.50
2018-12-05T12:14:29.289Z,12.93
2018-12-05T12:19:43.434Z,15.23
2018-12-05T12:22:17.205Z,15.00
2018-12-05T12:24:52.458Z,15.23
2018-12-05T12:30:15.917Z,13.50
2018-12-05T12:32:43.367Z,11.33
2018-12-05T12:38:00.484Z,11.33
2018-12-05T12:40:34.620Z,10.07
2018-12-05T12:45:49.951Z,13.63
2018-12-05T12:48:23.743Z,12.47
2018-12-05T12:50:58.586Z,10.53
2018-12-05T12:56:12.094Z,10.67
2018-12-05T12:58:45.853Z,9.63
2018-12-05T13:04:01.458Z,13.73
2018-12-05T13:09:17.024Z,9.93
2018-12-05T13:11:51.841Z,13.33
2018-12-05T13:17:05.179Z,11.40
2018-12-05T13:19:38.921Z,10.67
2018-12-05T13:22:12.746Z,10.73
2018-12-05T13:27:26.105Z,11.40
2018-12-05T13:32:41.260Z,9.35
2018-12-05T13:38:00.861Z,10.07
2018-12-05T13:40:34.626Z,11.63
2018-12-05T13:45:50.214Z,10.57
2018-12-05T13:48:23.940Z,14.93
2018-12-05T13:50:57.762Z,9.68
2018-12-05T13:53:32.706Z,9.13
2018-12-05T13:56:06.387Z,11.00
2018-12-05T13:58:40.195Z,8.97
2018-12-05T14:01:15.033Z,11.10
2018-12-05T14:03:50.002Z,8.63
2018-12-05T14:06:23.810Z,10.28
2018-12-05T14:08:57.628Z,11.37
2018-12-05T14:11:31.462Z,12.77
2018-12-05T14:14:05.329Z,10.90
2018-12-05T14:16:39.115Z,13.53
2018-12-05T14:19:12.895Z,11.57
2018-12-05T14:21:47.861Z,12.03
2018-12-05T14:24:21.668Z,12.45
2018-12-05T14:26:55.576Z,9.20
2018-12-05T14:29:29.590Z,10.67
2018-12-05T14:32:03.727Z,9.53
2018-12-05T14:34:37.508Z,11.70
2018-12-05T14:37:12.229Z,9.10
2018-12-05T14:42:26.981Z,10.57
2018-12-05T14:47:42.534Z,9.50
2018-12-05T14:50:16.573Z,11.07
2018-12-05T14:52:50.429Z,10.10
2018-12-05T14:55:24.268Z,12.07
2018-12-05T14:57:58.100Z,11.23
2018-12-05T15:00:32.257Z,10.77
2018-12-05T15:03:06.832Z,10.43
2018-12-05T15:05:40.626Z,11.63
2018-12-05T15:08:14.453Z,11.27
2018-12-05T15:10:48.297Z,11.90
2018-12-05T15:13:23.236Z,13.53
2018-12-05T15:15:57.062Z,11.47
2018-12-05T15:18:30.858Z,13.77
2018-12-05T15:21:04.649Z,13.47
2018-12-05T15:23:38.459Z,15.50
2018-12-05T15:26:13.862Z,12.67
2018-12-05T15:28:48.609Z,12.80
2018-12-05T15:31:23.152Z,12.47
2018-12-05T15:33:57.019Z,12.37
2018-12-05T15:36:31.168Z,10.90
2018-12-05T15:39:05.925Z,13.17
2018-12-05T15:44:19.333Z,13.13
2018-12-05T15:46:53.116Z,15.63
2018-12-05T15:49:26.939Z,13.07
2018-12-05T15:52:00.817Z,10.83
2018-12-05T15:54:34.593Z,12.43
2018-12-05T15:57:10.142Z,12.20
2018-12-05T15:59:43.925Z,12.53
2018-12-05T16:02:18.476Z,11.33
2018-12-05T16:04:52.290Z,11.00
2018-12-05T16:07:26.163Z,11.73
2018-12-05T16:10:00.763Z,10.33
2018-12-05T16:12:34.560Z,9.97
2018-12-05T16:15:08.349Z,11.57
2018-12-05T16:17:42.182Z,13.70
2018-12-05T16:20:15.963Z,10.10
2018-12-05T16:22:49.787Z,9.83
2018-12-05T16:25:23.825Z,12.47
2018-12-05T16:27:58.351Z,10.90
2018-12-05T16:30:32.938Z,10.57
2018-12-05T16:33:07.090Z,10.00
2018-12-05T16:35:41.985Z,11.57
2018-12-05T16:38:15.849Z,12.50
2018-12-05T16:43:29.492Z,11.50
2018-12-05T16:46:04.265Z,9.70
2018-12-05T16:48:39.201Z,10.37
2018-12-05T16:51:13.079Z,9.40
2018-12-05T16:53:46.857Z,10.13
2018-12-05T16:56:21.389Z,11.53
2018-12-05T16:58:55.926Z,12.20
2018-12-05T17:01:29.731Z,10.30
2018-12-05T17:04:03.554Z,11.33
2018-12-05T17:09:17.743Z,11.70
2018-12-05T17:11:51.887Z,11.20
2018-12-05T17:14:27.024Z,14.37
2018-12-05T17:17:00.254Z,13.50
2018-12-05T17:19:34.954Z,12.33
2018-12-05T17:22:09.529Z,15.93
2018-12-05T17:24:43.321Z,13.47
2018-12-05T17:27:17.869Z,11.97
2018-12-05T17:29:50.933Z,11.20
2018-12-05T17:32:24.737Z,12.47
2018-12-05T17:34:58.576Z,10.67
2018-12-05T17:37:32.396Z,10.67
2018-12-05T17:42:45.811Z,10.13
2018-12-05T17:45:19.540Z,10.73
2018-12-05T17:47:53.434Z,11.40
2018-12-05T17:50:28.057Z,11.40
2018-12-05T17:53:01.842Z,12.30
2018-12-05T17:55:35.683Z,11.93
2018-12-05T17:58:09.934Z,8.97
2018-12-05T18:00:44.833Z,11.00
2018-12-05T18:03:18.938Z,10.00
2018-12-05T18:05:52.781Z,11.00
2018-12-05T18:11:08.355Z,14.67
2018-12-05T18:16:23.853Z,8.50
2018-12-05T18:18:57.594Z,9.87
2018-12-05T18:21:31.446Z,9.97
2018-12-05T18:24:05.330Z,9.37
2018-12-05T18:26:39.575Z,9.20
2018-12-05T18:29:13.421Z,10.60
2018-12-05T18:31:47.193Z,10.33
2018-12-05T18:34:21.229Z,7.97
2018-12-05T18:36:55.004Z,10.67
2018-12-05T18:42:10.257Z,10.23
2018-12-05T18:47:25.426Z,10.03
2018-12-05T18:49:59.910Z,10.87
2018-12-05T18:52:33.769Z,10.00
2018-12-05T18:57:50.049Z,10.37
2018-12-05T19:00:24.083Z,10.07
2018-12-05T19:02:57.897Z,9.57
2018-12-05T19:05:32.523Z,10.03
2018-12-05T19:08:08.908Z,10.77
2018-12-05T19:10:42.005Z,11.73
2018-12-05T19:13:15.794Z,10.67
2018-12-05T19:15:50.318Z,13.67
2018-12-05T19:18:24.880Z,10.60
2018-12-05T19:20:58.745Z,9.53
2018-12-05T19:23:33.067Z,10.78
2018-12-05T19:26:08.203Z,9.07
2018-12-05T19:28:42.758Z,9.93
2018-12-05T19:31:19.532Z,7.33
2018-12-05T19:33:50.799Z,11.03
2018-12-05T19:36:24.597Z,8.33
2018-12-05T19:38:58.374Z,8.07
2018-12-05T19:44:13.685Z,8.97
2018-12-05T19:46:47.466Z,7.77
2018-12-05T19:49:21.255Z,8.87
2018-12-05T19:51:55.861Z,7.50
2018-12-05T19:54:31.023Z,8.60
2018-12-05T19:57:05.165Z,9.33
2018-12-05T19:59:39.837Z,8.93
2018-12-05T20:02:13.616Z,10.03
2018-12-05T20:04:47.458Z,8.73
2018-12-05T20:07:21.320Z,9.70
2018-12-05T20:09:55.186Z,8.67
2018-12-05T20:12:29.020Z,8.97
2018-12-05T20:15:02.767Z,9.30
2018-12-05T20:17:36.605Z,8.83
2018-12-05T20:20:11.676Z,9.07
2018-12-05T20:22:45.570Z,8.37
2018-12-05T20:25:20.078Z,7.93
2018-12-05T20:27:54.926Z,10.30
2018-12-05T20:30:28.794Z,10.00
2018-12-05T20:33:02.608Z,8.80
2018-12-05T20:35:36.396Z,8.60
2018-12-05T20:38:10.250Z,10.73
2018-12-05T20:43:25.839Z,9.90
2018-12-05T20:46:00.356Z,11.50
2018-12-05T20:48:34.893Z,9.70
2018-12-05T20:51:09.531Z,8.43
2018-12-05T20:53:43.690Z,8.40
2018-12-05T20:58:57.424Z,11.77
2018-12-05T21:01:31.290Z,9.00
2018-12-05T21:04:05.052Z,11.35
2018-12-05T21:06:39.223Z,9.93
2018-12-05T21:09:14.086Z,12.13
2018-12-05T21:11:48.272Z,11.23
2018-12-05T21:14:22.397Z,12.70
2018-12-05T21:16:56.708Z,10.53
2018-12-05T21:19:30.617Z,10.53
2018-12-05T21:27:24.059Z,12.23
2018-12-05T21:29:58.570Z,10.87
2018-12-05T21:32:32.384Z,11.00
2018-12-05T21:37:47.708Z,10.33
2018-12-05T21:40:22.187Z,9.33
2018-12-05T21:45:35.539Z,12.37
2018-12-05T21:48:09.282Z,12.97
2018-12-05T21:50:43.145Z,9.78
2018-12-05T21:55:58.694Z,11.47
2018-12-05T21:58:33.189Z,12.80
2018-12-05T22:01:07.016Z,10.23
2018-12-05T22:03:41.190Z,12.03
2018-12-05T22:06:14.998Z,10.73
2018-12-05T22:08:48.785Z,12.13
2018-12-05T22:11:22.582Z,11.40
2018-12-05T22:13:56.353Z,9.97
2018-12-05T22:16:30.326Z,10.20
2018-12-05T22:19:04.180Z,12.03
2018-12-05T22:24:20.901Z,12.33
2018-12-05T22:26:55.058Z,13.90
2018-12-05T22:29:28.849Z,10.63
2018-12-05T22:32:02.731Z,11.70
2018-12-05T22:34:36.474Z,12.70
2018-12-05T22:39:52.811Z,18.73
2018-12-05T22:42:26.943Z,11.57
2018-12-05T22:47:42.906Z,12.93
2018-12-05T22:50:16.670Z,11.47
2018-12-05T22:52:52.639Z,11.40
2018-12-05T22:55:27.592Z,12.10
2018-12-05T22:58:01.405Z,11.00
2018-12-05T23:00:35.202Z,13.57
2018-12-05T23:03:09.395Z,14.70
2018-12-05T23:05:43.168Z,15.53
2018-12-05T23:08:16.971Z,15.27
2018-12-05T23:10:50.908Z,12.67
2018-12-05T23:13:24.885Z,13.60
2018-12-05T23:15:58.605Z,12.40
2018-12-05T23:18:32.379Z,13.53
2018-12-05T23:21:06.355Z,12.70
2018-12-05T23:23:40.885Z,11.30
2018-12-05T23:26:15.752Z,13.53
2018-12-05T23:28:49.568Z,10.70
2018-12-05T23:31:23.421Z,14.33
2018-12-05T23:33:57.469Z,10.57
2018-12-05T23:36:31.508Z,11.73
2018-12-05T23:39:07.225Z,12.83
2018-12-05T23:41:41.069Z,11.93
2018-12-05T23:44:14.846Z,13.37
2018-12-05T23:46:48.618Z,13.67
2018-12-05T23:49:23.220Z,13.30
2018-12-05T23:51:56.981Z,11.60
2018-12-05T23:54:30.806Z,10.72
2018-12-05T23:57:04.561Z,12.30
2018-12-05T23:59:38.384Z,14.20
